<?xml version="1.0" encoding="UTF-8"?><gpx version="1.1" xmlns:xsd="http://www.w3.org/2001/XMLSchema" xmlns:xsi="http://www.w3.org/2001/XMLSchema-instance" creator="Magellan, Inc. All Rights Reserved. http://www.magellangps.com" xsi:schemaLocation="http://www.topografix.com/GPX/1/1 http://www.topografix.com/GPX/1/1/gpx.xsd http://www.magellangps.com/mgnext/0/2 http://www.magellangps.com/mgnext/0/2/mgn.xsd http://www.groundspeak.com/cache/1/0 http://www.groundspeak.com/cache/1/0/cache.xsd" xmlns="http://www.topografix.com/GPX/1/1">
<trk>
    <name>6 feet canyon</name>
    <desc></desc>
    <extensions>
      <mgn:extensions xmlns:mgn="http://www.magellangps.com/mgnext/0/2">
        <mgn:difficulty>4</mgn:difficulty>
        <mgn:uuid>1037b1c3-f2b5-42cd-bf41-e4c5b6440709</mgn:uuid>
        <mgn:proplist>
          <mgn:prop key="Vehicle">9929</mgn:prop>
          <mgn:prop key="VehicleType">,OHV</mgn:prop>
          <mgn:prop key="WD">Must</mgn:prop>
          <mgn:prop key="LO">Must</mgn:prop>
          <mgn:prop key="DIRT">Loose;Rutted</mgn:prop>
          <mgn:prop key="T_MUD"></mgn:prop>
          <mgn:prop key="T_SAND">0-6N</mgn:prop>
          <mgn:prop key="T_SNOW"></mgn:prop>
          <mgn:prop key="T_ICE"></mgn:prop>
          <mgn:prop key="T_WATER"></mgn:prop>
          <mgn:prop key="T_ROCK">12+U</mgn:prop>
          <mgn:prop key="PITCH">10-20</mgn:prop>
          <mgn:prop key="ROLL">10-20</mgn:prop>
          <mgn:prop key="MAGELLAN_OFFROAD_KEY">0</mgn:prop>
          <mgn:prop key="Author">NotARubicon</mgn:prop>
          <mgn:prop key="InstagramUpdate">True</mgn:prop>
          <mgn:prop key="MaxElevation">1159</mgn:prop>
          <mgn:prop key="MinElevation">1148</mgn:prop>
          <mgn:prop key="ElevationChange">9.699218</mgn:prop>
          <mgn:prop key="RecordedTime">1600</mgn:prop>
          <mgn:prop key="Length">158.095</mgn:prop>
          <mgn:prop key="Type">Trail</mgn:prop>
          <mgn:prop key="Type2">Trail</mgn:prop>
        </mgn:proplist>
      </mgn:extensions>
    </extensions>

    <trkseg>
      <trkpt lat="34.598619" lon="-117.067993">
        <ele>1149.398438</ele>
        <time>2020-05-23T18:03:29.000Z</time>
      </trkpt>
      <trkpt lat="34.598648" lon="-117.067877">
        <ele>1148.500000</ele>
        <time>2020-05-23T18:03:47.000Z</time>
      </trkpt>
      <trkpt lat="34.598651" lon="-117.067872">
        <ele>1149.296875</ele>
        <time>2020-05-23T18:07:47.000Z</time>
      </trkpt>
      <trkpt lat="34.598721" lon="-117.067809">
        <ele>1150.796875</ele>
        <time>2020-05-23T18:08:10.000Z</time>
      </trkpt>
      <trkpt lat="34.598729" lon="-117.067814">
        <ele>1148.398438</ele>
        <time>2020-05-23T18:14:59.000Z</time>
      </trkpt>
      <trkpt lat="34.598792" lon="-117.067739">
        <ele>1148.597656</ele>
        <time>2020-05-23T18:15:00.000Z</time>
      </trkpt>
      <trkpt lat="34.598798" lon="-117.067738">
        <ele>1151.097656</ele>
        <time>2020-05-23T18:23:57.000Z</time>
      </trkpt>
      <trkpt lat="34.59888" lon="-117.067714">
        <ele>1151.500000</ele>
        <time>2020-05-23T18:24:01.000Z</time>
      </trkpt>
      <trkpt lat="34.598886" lon="-117.067718">
        <ele>1152.199219</ele>
        <time>2020-05-23T18:24:27.000Z</time>
      </trkpt>
      <trkpt lat="34.598958" lon="-117.067652">
        <ele>1152.296875</ele>
        <time>2020-05-23T18:24:28.000Z</time>
      </trkpt>
      <trkpt lat="34.599035" lon="-117.067582">
        <ele>1154.500000</ele>
        <time>2020-05-23T18:24:46.000Z</time>
      </trkpt>
      <trkpt lat="34.599037" lon="-117.067576">
        <ele>1159.398438</ele>
        <time>2020-05-23T18:25:26.000Z</time>
      </trkpt>
      <trkpt lat="34.599089" lon="-117.067467">
        <ele>1159.296875</ele>
        <time>2020-05-23T18:25:30.000Z</time>
      </trkpt>
      <trkpt lat="34.599093" lon="-117.067461">
        <ele>1158.000000</ele>
        <time>2020-05-23T18:25:43.000Z</time>
      </trkpt>
      <trkpt lat="34.599171" lon="-117.067422">
        <ele>1158.000000</ele>
        <time>2020-05-23T18:25:44.000Z</time>
      </trkpt>
      <trkpt lat="34.599177" lon="-117.067417">
        <ele>1156.500000</ele>
        <time>2020-05-23T18:25:58.000Z</time>
      </trkpt>
      <trkpt lat="34.599257" lon="-117.067377">
        <ele>1156.500000</ele>
        <time>2020-05-23T18:26:00.000Z</time>
      </trkpt>
      <trkpt lat="34.599267" lon="-117.067375">
        <ele>1158.597656</ele>
        <time>2020-05-23T18:26:19.000Z</time>
      </trkpt>
      <trkpt lat="34.599321" lon="-117.067293">
        <ele>1158.699219</ele>
        <time>2020-05-23T18:26:20.000Z</time>
      </trkpt>
      <trkpt lat="34.599323" lon="-117.067289">
        <ele>1158.699219</ele>
        <time>2020-05-23T18:26:55.000Z</time>
      </trkpt>
      <trkpt lat="34.599336" lon="-117.067181">
        <ele>1158.500000</ele>
        <time>2020-05-23T18:26:56.000Z</time>
      </trkpt>
      <trkpt lat="34.59934" lon="-117.067173">
        <ele>1159.199219</ele>
        <time>2020-05-23T18:27:11.000Z</time>
      </trkpt>
      <trkpt lat="34.599348" lon="-117.067071">
        <ele>1159.296875</ele>
        <time>2020-05-23T18:27:13.000Z</time>
      </trkpt>
      <trkpt lat="34.599348" lon="-117.067061">
        <ele>1158.796875</ele>
        <time>2020-05-23T18:28:57.000Z</time>
      </trkpt>
      <trkpt lat="34.599363" lon="-117.066959">
        <ele>1159.398438</ele>
        <time>2020-05-23T18:29:00.000Z</time>
      </trkpt>
      <trkpt lat="34.599375" lon="-117.066839">
        <ele>1159.796875</ele>
        <time>2020-05-23T18:29:59.000Z</time>
      </trkpt>
      <trkpt lat="34.599438" lon="-117.066772">
        <ele>1159.097656</ele>
        <time>2020-05-23T18:30:09.000Z</time>
      </trkpt>
      <trkpt lat="34.599438" lon="-117.066772">
        <ele>1159.097656</ele>
        <time>2020-05-23T18:30:09.000Z</time>
      </trkpt>
    </trkseg>
</trk>
</gpx>